ISR043 LLBG-LLER
Flight info
| Callsign | ISR043 |
|---|---|
| Flight time | 0h 32m |
| Altitude | 19000 |
| Route | TOMAL J10 NURIT |
| Aircraft | A320/M-SDE2FGIJ1LORVWY/SB1 |
Departure
| Time | 2026-04-26 17:17 |
|---|---|
| Airport | Ben Gurion International Airport (LLBG) |
Arrival
| Time | 2026-04-26 17:49 |
|---|---|
| Airport | Ramon International Airport (LLER) |
| Time | Latitude | Longitude | Altitude | Speed | Heading |
|---|---|---|---|---|---|
| 2026-04-26 16:37 | 32.00355 | 34.87968 | 120 ft | 0 kts | 121° |
| 2026-04-26 16:39 | 32.00355 | 34.87967 | 120 ft | 0 kts | 121° |
| 2026-04-26 17:08 | 32.00361 | 34.87955 | 116 ft | 4 kts | 121° |
| 2026-04-26 17:08 | 32.00375 | 34.87927 | 119 ft | 4 kts | 120° |
| 2026-04-26 17:08 | 32.00389 | 34.87901 | 115 ft | 4 kts | 122° |
| 2026-04-26 17:09 | 32.00392 | 34.87881 | 117 ft | 4 kts | 39° |
| 2026-04-26 17:09 | 32.00381 | 34.87871 | 117 ft | 2 kts | 31° |
| 2026-04-26 17:09 | 32.00399 | 34.87884 | 116 ft | 4 kts | 31° |
| 2026-04-26 17:09 | 32.00416 | 34.87896 | 118 ft | 0 kts | 31° |
| 2026-04-26 17:12 | 32.00424 | 34.87901 | 117 ft | 4 kts | 31° |
| 2026-04-26 17:13 | 32.00540 | 34.87941 | 116 ft | 13 kts | 334° |
| 2026-04-26 17:13 | 32.00629 | 34.87946 | 118 ft | 15 kts | 31° |
| 2026-04-26 17:13 | 32.00862 | 34.88117 | 117 ft | 23 kts | 31° |
| 2026-04-26 17:14 | 32.01003 | 34.88224 | 120 ft | 25 kts | 30° |
| 2026-04-26 17:14 | 32.01315 | 34.88465 | 119 ft | 29 kts | 43° |
| 2026-04-26 17:14 | 32.01439 | 34.88653 | 120 ft | 30 kts | 60° |
| 2026-04-26 17:15 | 32.01535 | 34.89097 | 117 ft | 16 kts | 76° |
| 2026-04-26 17:15 | 32.01623 | 34.89155 | 117 ft | 16 kts | 350° |
| 2026-04-26 17:15 | 32.01639 | 34.89152 | 117 ft | 0 kts | 350° |
| 2026-04-26 17:16 | 32.01656 | 34.89148 | 117 ft | 5 kts | 350° |
| 2026-04-26 17:16 | 32.01714 | 34.89134 | 116 ft | 14 kts | 342° |
| 2026-04-26 17:16 | 32.01738 | 34.89024 | 120 ft | 15 kts | 261° |
| 2026-04-26 17:16 | 32.01709 | 34.88839 | 121 ft | 48 kts | 259° |
| 2026-04-26 17:17 | 32.01611 | 34.88190 | 120 ft | 109 kts | 259° |
| 2026-04-26 17:17 | 32.01445 | 34.87125 | 118 ft | 152 kts | 259° |
| 2026-04-26 17:17 | 32.01247 | 34.85887 | 596 ft | 155 kts | 259° |
| 2026-04-26 17:17 | 32.01042 | 34.84634 | 1207 ft | 157 kts | 252° |
| 2026-04-26 17:18 | 32.00433 | 34.83557 | 1740 ft | 162 kts | 218° |
| 2026-04-26 17:18 | 31.99411 | 34.83043 | 2243 ft | 165 kts | 187° |
| 2026-04-26 17:18 | 31.98276 | 34.83253 | 2746 ft | 169 kts | 155° |
| 2026-04-26 17:18 | 31.97408 | 34.84188 | 3220 ft | 174 kts | 120° |
| 2026-04-26 17:19 | 31.96633 | 34.87161 | 3810 ft | 208 kts | 106° |
| 2026-04-26 17:19 | 31.96250 | 34.88823 | 4321 ft | 215 kts | 106° |
| 2026-04-26 17:19 | 31.95855 | 34.90533 | 4985 ft | 217 kts | 107° |
| 2026-04-26 17:20 | 31.95455 | 34.92257 | 5651 ft | 219 kts | 107° |
| 2026-04-26 17:20 | 31.95187 | 34.93412 | 6098 ft | 220 kts | 108° |
| 2026-04-26 17:20 | 31.94627 | 34.95720 | 6968 ft | 221 kts | 115° |
| 2026-04-26 17:20 | 31.93980 | 34.97453 | 7303 ft | 243 kts | 117° |
| 2026-04-26 17:21 | 31.93242 | 34.99349 | 7640 ft | 267 kts | 117° |
| 2026-04-26 17:21 | 31.92433 | 35.01411 | 8083 ft | 285 kts | 118° |
| 2026-04-26 17:21 | 31.91349 | 35.03371 | 8813 ft | 286 kts | 138° |
| 2026-04-26 17:21 | 31.89753 | 35.04690 | 9623 ft | 284 kts | 155° |
| 2026-04-26 17:22 | 31.87979 | 35.05768 | 10306 ft | 293 kts | 156° |
| 2026-04-26 17:22 | 31.86077 | 35.06901 | 10535 ft | 316 kts | 156° |
| 2026-04-26 17:22 | 31.84066 | 35.08095 | 10702 ft | 338 kts | 155° |
| 2026-04-26 17:22 | 31.81891 | 35.09392 | 10839 ft | 361 kts | 155° |
| 2026-04-26 17:23 | 31.79606 | 35.10762 | 10989 ft | 380 kts | 155° |
| 2026-04-26 17:23 | 31.77222 | 35.12196 | 11445 ft | 388 kts | 155° |
| 2026-04-26 17:23 | 31.74796 | 35.13661 | 12059 ft | 392 kts | 155° |
| 2026-04-26 17:23 | 31.72346 | 35.15141 | 12675 ft | 396 kts | 155° |
| 2026-04-26 17:24 | 31.69908 | 35.16615 | 13289 ft | 400 kts | 155° |
| 2026-04-26 17:24 | 31.67421 | 35.18115 | 13898 ft | 404 kts | 155° |
| 2026-04-26 17:24 | 31.64894 | 35.19634 | 14454 ft | 407 kts | 155° |
| 2026-04-26 17:24 | 31.62359 | 35.21152 | 15011 ft | 410 kts | 155° |
| 2026-04-26 17:25 | 31.59839 | 35.22670 | 15546 ft | 413 kts | 155° |
| 2026-04-26 17:25 | 31.57280 | 35.24240 | 16077 ft | 416 kts | 155° |
| 2026-04-26 17:25 | 31.54722 | 35.25830 | 16587 ft | 419 kts | 155° |
| 2026-04-26 17:25 | 31.52135 | 35.27450 | 16926 ft | 421 kts | 155° |
| 2026-04-26 17:26 | 31.49535 | 35.29075 | 16999 ft | 424 kts | 155° |
| 2026-04-26 17:26 | 31.46915 | 35.30701 | 17003 ft | 426 kts | 155° |
| 2026-04-26 17:26 | 31.44309 | 35.32312 | 17003 ft | 427 kts | 155° |
| 2026-04-26 17:26 | 31.41675 | 35.33933 | 17002 ft | 427 kts | 155° |
| 2026-04-26 17:27 | 31.39040 | 35.35555 | 16999 ft | 426 kts | 155° |
| 2026-04-26 17:27 | 31.36432 | 35.37105 | 16995 ft | 425 kts | 159° |
| 2026-04-26 17:27 | 31.33646 | 35.38207 | 17000 ft | 421 kts | 169° |
| 2026-04-26 17:27 | 31.30753 | 35.38708 | 16997 ft | 418 kts | 179° |
| 2026-04-26 17:28 | 31.27854 | 35.38617 | 16998 ft | 415 kts | 187° |
| 2026-04-26 17:28 | 31.24968 | 35.38298 | 16996 ft | 415 kts | 187° |
| 2026-04-26 17:28 | 31.22086 | 35.37991 | 16989 ft | 415 kts | 187° |
| 2026-04-26 17:28 | 31.19253 | 35.37693 | 16986 ft | 415 kts | 187° |
| 2026-04-26 17:29 | 31.16486 | 35.37404 | 16980 ft | 415 kts | 187° |
| 2026-04-26 17:29 | 31.14571 | 35.37205 | 16976 ft | 415 kts | 187° |
| 2026-04-26 17:29 | 31.10758 | 35.36815 | 16981 ft | 415 kts | 187° |
| 2026-04-26 17:29 | 31.07879 | 35.36524 | 16972 ft | 415 kts | 187° |
| 2026-04-26 17:30 | 31.04996 | 35.36231 | 16978 ft | 415 kts | 187° |
| 2026-04-26 17:30 | 31.02110 | 35.35938 | 16976 ft | 415 kts | 187° |
| 2026-04-26 17:30 | 30.99256 | 35.35645 | 16974 ft | 415 kts | 187° |
| 2026-04-26 17:30 | 30.96396 | 35.35336 | 16971 ft | 414 kts | 189° |
| 2026-04-26 17:31 | 30.93582 | 35.34637 | 16973 ft | 412 kts | 199° |
| 2026-04-26 17:31 | 30.90905 | 35.33423 | 16971 ft | 411 kts | 205° |
| 2026-04-26 17:31 | 30.88278 | 35.32112 | 16965 ft | 411 kts | 204° |
| 2026-04-26 17:31 | 30.85647 | 35.30809 | 16964 ft | 411 kts | 204° |
| 2026-04-26 17:32 | 30.83013 | 35.29513 | 16964 ft | 411 kts | 204° |
| 2026-04-26 17:32 | 30.80409 | 35.28237 | 16959 ft | 411 kts | 204° |
| 2026-04-26 17:32 | 30.77764 | 35.26941 | 16794 ft | 411 kts | 204° |
| 2026-04-26 17:32 | 30.75118 | 35.25644 | 16532 ft | 410 kts | 204° |
| 2026-04-26 17:33 | 30.72524 | 35.24370 | 16278 ft | 409 kts | 204° |
| 2026-04-26 17:33 | 30.69901 | 35.23082 | 16033 ft | 408 kts | 204° |
| 2026-04-26 17:33 | 30.67280 | 35.21796 | 15780 ft | 406 kts | 204° |
| 2026-04-26 17:34 | 30.62101 | 35.19251 | 14542 ft | 401 kts | 204° |
| 2026-04-26 17:34 | 30.59573 | 35.18010 | 13856 ft | 397 kts | 204° |
| 2026-04-26 17:34 | 30.57048 | 35.16785 | 13490 ft | 386 kts | 202° |
| 2026-04-26 17:34 | 30.54507 | 35.15931 | 12916 ft | 381 kts | 193° |
| 2026-04-26 17:35 | 30.51897 | 35.15417 | 12224 ft | 375 kts | 191° |
| 2026-04-26 17:35 | 30.49346 | 35.14929 | 11132 ft | 367 kts | 191° |
| 2026-04-26 17:35 | 30.46857 | 35.14450 | 10758 ft | 371 kts | 191° |
| 2026-04-26 17:35 | 30.44340 | 35.13964 | 10521 ft | 371 kts | 191° |
| 2026-04-26 17:36 | 30.41798 | 35.13475 | 10275 ft | 369 kts | 191° |
| 2026-04-26 17:36 | 30.39264 | 35.12989 | 10037 ft | 368 kts | 191° |
| 2026-04-26 17:36 | 30.36731 | 35.12503 | 9845 ft | 367 kts | 191° |
| 2026-04-26 17:36 | 30.34233 | 35.12022 | 9717 ft | 367 kts | 191° |
| 2026-04-26 17:37 | 30.31710 | 35.11535 | 9599 ft | 367 kts | 191° |
| 2026-04-26 17:37 | 30.29182 | 35.11056 | 9459 ft | 367 kts | 191° |
| 2026-04-26 17:37 | 30.26662 | 35.10584 | 9329 ft | 367 kts | 191° |
| 2026-04-26 17:38 | 30.21647 | 35.09647 | 8891 ft | 366 kts | 191° |
| 2026-04-26 17:38 | 30.19126 | 35.09147 | 8393 ft | 364 kts | 191° |
| 2026-04-26 17:38 | 30.16638 | 35.08630 | 7891 ft | 363 kts | 192° |
| 2026-04-26 17:38 | 30.14179 | 35.08109 | 7398 ft | 362 kts | 192° |
| 2026-04-26 17:39 | 30.11743 | 35.07592 | 6916 ft | 362 kts | 192° |
| 2026-04-26 17:39 | 30.09265 | 35.07070 | 6416 ft | 361 kts | 192° |
| 2026-04-26 17:39 | 30.06789 | 35.06553 | 6015 ft | 361 kts | 192° |
| 2026-04-26 17:39 | 30.04323 | 35.06053 | 5913 ft | 362 kts | 191° |
| 2026-04-26 17:40 | 30.01825 | 35.05565 | 5928 ft | 363 kts | 191° |
| 2026-04-26 17:40 | 30.01004 | 35.05407 | 5929 ft | 363 kts | 192° |
| 2026-04-26 17:40 | 29.96832 | 35.04603 | 5923 ft | 364 kts | 191° |
| 2026-04-26 17:40 | 29.94367 | 35.04129 | 5931 ft | 364 kts | 191° |
| 2026-04-26 17:41 | 29.91864 | 35.03646 | 5924 ft | 363 kts | 192° |
| 2026-04-26 17:41 | 29.89388 | 35.03165 | 5929 ft | 363 kts | 191° |
| 2026-04-26 17:41 | 29.86890 | 35.02682 | 5924 ft | 363 kts | 192° |
| 2026-04-26 17:41 | 29.84464 | 35.02219 | 5923 ft | 339 kts | 191° |
| 2026-04-26 17:42 | 29.82263 | 35.01741 | 5924 ft | 303 kts | 199° |
| 2026-04-26 17:42 | 29.80412 | 35.00880 | 5925 ft | 272 kts | 206° |
| 2026-04-26 17:42 | 29.78733 | 35.00042 | 5925 ft | 256 kts | 205° |
| 2026-04-26 17:42 | 29.77130 | 34.99244 | 5929 ft | 252 kts | 206° |
| 2026-04-26 17:43 | 29.75497 | 34.98430 | 5931 ft | 259 kts | 205° |
| 2026-04-26 17:43 | 29.73851 | 34.97611 | 5812 ft | 253 kts | 206° |
| 2026-04-26 17:43 | 29.72279 | 34.96831 | 5678 ft | 244 kts | 206° |
| 2026-04-26 17:43 | 29.70736 | 34.96067 | 5444 ft | 240 kts | 206° |
| 2026-04-26 17:44 | 29.69201 | 34.95304 | 5144 ft | 240 kts | 206° |
| 2026-04-26 17:44 | 29.67665 | 34.94540 | 4931 ft | 234 kts | 206° |
| 2026-04-26 17:44 | 29.66222 | 34.93826 | 4839 ft | 220 kts | 205° |
| 2026-04-26 17:44 | 29.64863 | 34.93151 | 4697 ft | 211 kts | 207° |
| 2026-04-26 17:45 | 29.63521 | 34.92486 | 4315 ft | 207 kts | 206° |
| 2026-04-26 17:45 | 29.62171 | 34.91894 | 3941 ft | 210 kts | 193° |
| 2026-04-26 17:45 | 29.60765 | 34.92113 | 3793 ft | 208 kts | 154° |
| 2026-04-26 17:45 | 29.59749 | 34.93244 | 3604 ft | 203 kts | 116° |
| 2026-04-26 17:46 | 29.59505 | 34.94834 | 3110 ft | 206 kts | 78° |
| 2026-04-26 17:46 | 29.60011 | 34.96284 | 2899 ft | 187 kts | 53° |
| 2026-04-26 17:46 | 29.60748 | 34.97483 | 2579 ft | 181 kts | 44° |
| 2026-04-26 17:46 | 29.61748 | 34.98277 | 2182 ft | 170 kts | 20° |
| 2026-04-26 17:47 | 29.62803 | 34.98636 | 1984 ft | 151 kts | 11° |
| 2026-04-26 17:47 | 29.63144 | 34.98732 | 1893 ft | 148 kts | 11° |
| 2026-04-26 17:47 | 29.64768 | 34.99183 | 1540 ft | 141 kts | 11° |
| 2026-04-26 17:47 | 29.65704 | 34.99453 | 1310 ft | 140 kts | 9° |
| 2026-04-26 17:48 | 29.66649 | 34.99727 | 1152 ft | 140 kts | 10° |
| 2026-04-26 17:48 | 29.67268 | 34.99906 | 957 ft | 137 kts | 11° |
| 2026-04-26 17:48 | 29.68173 | 35.00159 | 848 ft | 135 kts | 12° |
| 2026-04-26 17:48 | 29.69373 | 35.00472 | 622 ft | 132 kts | 15° |
| 2026-04-26 17:49 | 29.70257 | 35.00725 | 481 ft | 133 kts | 14° |
| 2026-04-26 17:49 | 29.70859 | 35.00892 | 368 ft | 132 kts | 14° |
| 2026-04-26 17:49 | 29.71925 | 35.01193 | 298 ft | 92 kts | 13° |
| 2026-04-26 17:49 | 29.72233 | 35.01280 | 298 ft | 47 kts | 14° |
| 2026-04-26 17:50 | 29.72396 | 35.01229 | 300 ft | 25 kts | 288° |
| 2026-04-26 17:50 | 29.72411 | 35.01127 | 300 ft | 12 kts | 264° |
| 2026-04-26 17:50 | 29.72405 | 35.01024 | 298 ft | 14 kts | 281° |
| 2026-04-26 17:50 | 29.72429 | 35.00906 | 299 ft | 16 kts | 287° |
| 2026-04-26 17:51 | 29.72455 | 35.00793 | 301 ft | 7 kts | 283° |
| 2026-04-26 17:51 | 29.72459 | 35.00772 | 300 ft | 0 kts | 283° |
| 2026-04-26 17:53 | 29.72459 | 35.00773 | 298 ft | 0 kts | 283° |